CFG2WR LEVC-LEBB
Flight info
| Callsign | CFG2WR |
|---|---|
| Flight time | 0h 48m |
| Altitude | 13000 |
| Route | CENTA N733 BENED/N0456F300 DCT CJN DCT RBO N867 DGO |
| Aircraft | A320/M-SDE3FGHIRWY/LB1 |
Departure
| Time | 2026-04-29 15:50 |
|---|---|
| Airport | Valencia Airport (LEVC) |
Arrival
| Time | 2026-04-29 16:39 |
|---|---|
| Airport | Bilbao Airport (LEBB) |
| Time | Latitude | Longitude | Altitude | Speed | Heading |
|---|---|---|---|---|---|
| 2026-04-29 15:34 | 39.49059 | -0.47442 | 245 ft | 0 kts | 40° |
| 2026-04-29 15:36 | 39.49052 | -0.47450 | 245 ft | 2 kts | 40° |
| 2026-04-29 15:36 | 39.49040 | -0.47463 | 245 ft | 2 kts | 40° |
| 2026-04-29 15:37 | 39.49028 | -0.47475 | 245 ft | 2 kts | 40° |
| 2026-04-29 15:37 | 39.49017 | -0.47488 | 245 ft | 2 kts | 40° |
| 2026-04-29 15:37 | 39.49011 | -0.47494 | 245 ft | 0 kts | 40° |
| 2026-04-29 15:40 | 39.49012 | -0.47494 | 245 ft | 0 kts | 36° |
| 2026-04-29 15:40 | 39.49016 | -0.47496 | 245 ft | 1 kts | 317° |
| 2026-04-29 15:40 | 39.49018 | -0.47546 | 244 ft | 7 kts | 277° |
| 2026-04-29 15:40 | 39.49039 | -0.47613 | 245 ft | 8 kts | 297° |
| 2026-04-29 15:41 | 39.49055 | -0.47694 | 245 ft | 9 kts | 276° |
| 2026-04-29 15:41 | 39.49064 | -0.47788 | 245 ft | 11 kts | 278° |
| 2026-04-29 15:41 | 39.49095 | -0.47881 | 245 ft | 11 kts | 298° |
| 2026-04-29 15:41 | 39.49129 | -0.47972 | 245 ft | 11 kts | 296° |
| 2026-04-29 15:42 | 39.49165 | -0.48066 | 245 ft | 12 kts | 297° |
| 2026-04-29 15:42 | 39.49204 | -0.48166 | 245 ft | 12 kts | 297° |
| 2026-04-29 15:42 | 39.49245 | -0.48274 | 245 ft | 13 kts | 296° |
| 2026-04-29 15:42 | 39.49252 | -0.48362 | 245 ft | 10 kts | 223° |
| 2026-04-29 15:43 | 39.49221 | -0.48432 | 245 ft | 10 kts | 293° |
| 2026-04-29 15:43 | 39.49259 | -0.48521 | 245 ft | 11 kts | 296° |
| 2026-04-29 15:43 | 39.49297 | -0.48623 | 245 ft | 12 kts | 296° |
| 2026-04-29 15:43 | 39.49338 | -0.48730 | 245 ft | 13 kts | 296° |
| 2026-04-29 15:44 | 39.49381 | -0.48845 | 245 ft | 14 kts | 297° |
| 2026-04-29 15:44 | 39.49426 | -0.48962 | 245 ft | 15 kts | 297° |
| 2026-04-29 15:44 | 39.49474 | -0.49087 | 245 ft | 15 kts | 296° |
| 2026-04-29 15:44 | 39.49522 | -0.49216 | 245 ft | 16 kts | 297° |
| 2026-04-29 15:45 | 39.49573 | -0.49346 | 245 ft | 16 kts | 297° |
| 2026-04-29 15:45 | 39.49623 | -0.49480 | 245 ft | 15 kts | 292° |
| 2026-04-29 15:45 | 39.49651 | -0.49556 | 245 ft | 6 kts | 300° |
| 2026-04-29 15:45 | 39.49676 | -0.49613 | 245 ft | 7 kts | 301° |
| 2026-04-29 15:46 | 39.49705 | -0.49681 | 245 ft | 9 kts | 296° |
| 2026-04-29 15:46 | 39.49736 | -0.49759 | 245 ft | 10 kts | 298° |
| 2026-04-29 15:46 | 39.49773 | -0.49846 | 245 ft | 11 kts | 296° |
| 2026-04-29 15:46 | 39.49787 | -0.49943 | 245 ft | 9 kts | 249° |
| 2026-04-29 15:47 | 39.49739 | -0.49988 | 245 ft | 8 kts | 204° |
| 2026-04-29 15:47 | 39.49723 | -0.49998 | 245 ft | 0 kts | 206° |
| 2026-04-29 15:48 | 39.49716 | -0.50002 | 245 ft | 1 kts | 206° |
| 2026-04-29 15:48 | 39.49699 | -0.50013 | 245 ft | 3 kts | 206° |
| 2026-04-29 15:49 | 39.49673 | -0.50029 | 245 ft | 4 kts | 205° |
| 2026-04-29 15:49 | 39.49623 | -0.50010 | 245 ft | 8 kts | 120° |
| 2026-04-29 15:49 | 39.49621 | -0.50005 | 245 ft | 0 kts | 118° |
| 2026-04-29 15:49 | 39.49620 | -0.50004 | 245 ft | 0 kts | 118° |
| 2026-04-29 15:50 | 39.49568 | -0.49859 | 245 ft | 52 kts | 116° |
| 2026-04-29 15:50 | 39.49295 | -0.49141 | 245 ft | 121 kts | 117° |
| 2026-04-29 15:50 | 39.48856 | -0.47978 | 439 ft | 157 kts | 115° |
| 2026-04-29 15:50 | 39.48374 | -0.46710 | 1048 ft | 161 kts | 114° |
| 2026-04-29 15:51 | 39.47872 | -0.45426 | 1764 ft | 162 kts | 115° |
| 2026-04-29 15:51 | 39.47303 | -0.44167 | 2368 ft | 172 kts | 124° |
| 2026-04-29 15:51 | 39.46456 | -0.42954 | 2880 ft | 190 kts | 136° |
| 2026-04-29 15:51 | 39.45334 | -0.41929 | 3381 ft | 210 kts | 149° |
| 2026-04-29 15:52 | 39.43898 | -0.41196 | 3830 ft | 235 kts | 165° |
| 2026-04-29 15:52 | 39.42191 | -0.40974 | 4426 ft | 255 kts | 182° |
| 2026-04-29 15:52 | 39.40405 | -0.41435 | 5076 ft | 271 kts | 200° |
| 2026-04-29 15:52 | 39.38777 | -0.42614 | 5983 ft | 275 kts | 219° |
| 2026-04-29 15:53 | 39.37492 | -0.44401 | 6981 ft | 276 kts | 237° |
| 2026-04-29 15:53 | 39.36698 | -0.46615 | 7928 ft | 278 kts | 255° |
| 2026-04-29 15:53 | 39.36484 | -0.49074 | 8840 ft | 281 kts | 275° |
| 2026-04-29 15:53 | 39.37087 | -0.51442 | 9729 ft | 285 kts | 301° |
| 2026-04-29 15:54 | 39.38498 | -0.53288 | 10519 ft | 295 kts | 325° |
| 2026-04-29 15:54 | 39.40323 | -0.54626 | 11030 ft | 312 kts | 329° |
| 2026-04-29 15:54 | 39.42262 | -0.55997 | 11445 ft | 330 kts | 329° |
| 2026-04-29 15:54 | 39.44319 | -0.57460 | 11828 ft | 348 kts | 329° |
| 2026-04-29 15:55 | 39.46503 | -0.59027 | 12170 ft | 366 kts | 329° |
| 2026-04-29 15:55 | 39.48775 | -0.60668 | 12545 ft | 381 kts | 328° |
| 2026-04-29 15:55 | 39.51120 | -0.62364 | 13078 ft | 391 kts | 328° |
| 2026-04-29 15:55 | 39.53476 | -0.64073 | 13776 ft | 395 kts | 328° |
| 2026-04-29 15:56 | 39.55906 | -0.65841 | 14492 ft | 398 kts | 327° |
| 2026-04-29 15:56 | 39.58305 | -0.67604 | 15151 ft | 402 kts | 327° |
| 2026-04-29 15:56 | 39.60750 | -0.69401 | 15801 ft | 406 kts | 327° |
| 2026-04-29 15:56 | 39.63216 | -0.71213 | 16432 ft | 410 kts | 327° |
| 2026-04-29 15:57 | 39.65718 | -0.73048 | 17035 ft | 414 kts | 327° |
| 2026-04-29 15:57 | 39.68201 | -0.74872 | 17631 ft | 418 kts | 327° |
| 2026-04-29 15:57 | 39.70749 | -0.76742 | 18220 ft | 422 kts | 327° |
| 2026-04-29 15:57 | 39.73327 | -0.78635 | 18808 ft | 426 kts | 327° |
| 2026-04-29 15:58 | 39.75888 | -0.80517 | 19374 ft | 429 kts | 327° |
| 2026-04-29 15:58 | 39.78487 | -0.82429 | 19933 ft | 433 kts | 327° |
| 2026-04-29 15:58 | 39.81131 | -0.84373 | 20593 ft | 433 kts | 327° |
| 2026-04-29 15:58 | 39.83705 | -0.86264 | 21389 ft | 431 kts | 327° |
| 2026-04-29 15:59 | 39.86312 | -0.88183 | 22158 ft | 428 kts | 327° |
| 2026-04-29 15:59 | 39.88882 | -0.90079 | 22888 ft | 427 kts | 327° |
| 2026-04-29 15:59 | 39.91460 | -0.91982 | 23588 ft | 426 kts | 327° |
| 2026-04-29 15:59 | 39.94030 | -0.93881 | 24288 ft | 425 kts | 327° |
| 2026-04-29 16:00 | 39.96585 | -0.95771 | 25016 ft | 422 kts | 326° |
| 2026-04-29 16:00 | 39.99155 | -0.97672 | 25504 ft | 426 kts | 326° |
| 2026-04-29 16:00 | 40.01739 | -0.99590 | 25739 ft | 434 kts | 327° |
| 2026-04-29 16:00 | 40.04385 | -1.01555 | 26120 ft | 438 kts | 327° |
| 2026-04-29 16:01 | 40.07048 | -1.03532 | 26667 ft | 438 kts | 327° |
| 2026-04-29 16:01 | 40.09666 | -1.05473 | 27304 ft | 435 kts | 326° |
| 2026-04-29 16:01 | 40.12315 | -1.07434 | 27898 ft | 434 kts | 326° |
| 2026-04-29 16:01 | 40.14938 | -1.09370 | 28466 ft | 432 kts | 326° |
| 2026-04-29 16:02 | 40.17553 | -1.11306 | 29018 ft | 431 kts | 326° |
| 2026-04-29 16:02 | 40.20154 | -1.13241 | 29539 ft | 430 kts | 326° |
| 2026-04-29 16:02 | 40.22750 | -1.15173 | 30060 ft | 429 kts | 326° |
| 2026-04-29 16:02 | 40.25350 | -1.17109 | 30573 ft | 428 kts | 325° |
| 2026-04-29 16:03 | 40.27911 | -1.19022 | 31108 ft | 426 kts | 325° |
| 2026-04-29 16:03 | 40.30489 | -1.20947 | 31649 ft | 423 kts | 325° |
| 2026-04-29 16:03 | 40.33016 | -1.22838 | 32152 ft | 421 kts | 324° |
| 2026-04-29 16:03 | 40.35537 | -1.24726 | 32665 ft | 418 kts | 324° |
| 2026-04-29 16:04 | 40.38060 | -1.26618 | 33180 ft | 414 kts | 324° |
| 2026-04-29 16:04 | 40.40550 | -1.28486 | 33663 ft | 412 kts | 324° |
| 2026-04-29 16:04 | 40.43046 | -1.30362 | 34061 ft | 411 kts | 323° |
| 2026-04-29 16:04 | 40.45518 | -1.32222 | 34416 ft | 410 kts | 323° |
| 2026-04-29 16:05 | 40.47989 | -1.34086 | 34634 ft | 412 kts | 323° |
| 2026-04-29 16:05 | 40.50484 | -1.35972 | 34777 ft | 415 kts | 323° |
| 2026-04-29 16:05 | 40.52943 | -1.37828 | 35127 ft | 412 kts | 324° |
| 2026-04-29 16:05 | 40.55432 | -1.39705 | 35509 ft | 409 kts | 323° |
| 2026-04-29 16:06 | 40.57884 | -1.41558 | 35779 ft | 408 kts | 324° |
| 2026-04-29 16:06 | 40.60349 | -1.43426 | 35931 ft | 409 kts | 324° |
| 2026-04-29 16:06 | 40.62817 | -1.45295 | 35947 ft | 410 kts | 324° |
| 2026-04-29 16:07 | 40.67742 | -1.49023 | 35957 ft | 411 kts | 324° |
| 2026-04-29 16:07 | 40.72713 | -1.52795 | 35960 ft | 410 kts | 324° |
| 2026-04-29 16:08 | 40.77655 | -1.56553 | 35955 ft | 412 kts | 324° |
| 2026-04-29 16:08 | 40.82627 | -1.60338 | 35960 ft | 412 kts | 324° |
| 2026-04-29 16:09 | 40.87588 | -1.64122 | 35953 ft | 413 kts | 324° |
| 2026-04-29 16:09 | 40.92545 | -1.67926 | 35948 ft | 414 kts | 323° |
| 2026-04-29 16:10 | 40.97542 | -1.71773 | 35951 ft | 414 kts | 323° |
| 2026-04-29 16:10 | 41.02498 | -1.75582 | 35952 ft | 414 kts | 323° |
| 2026-04-29 16:11 | 41.07480 | -1.79412 | 35946 ft | 416 kts | 323° |
| 2026-04-29 16:11 | 41.12489 | -1.83260 | 35939 ft | 416 kts | 323° |
| 2026-04-29 16:12 | 41.17493 | -1.87095 | 35933 ft | 417 kts | 323° |
| 2026-04-29 16:12 | 41.22482 | -1.90936 | 35939 ft | 418 kts | 323° |
| 2026-04-29 16:13 | 41.27511 | -1.94827 | 35938 ft | 419 kts | 323° |
| 2026-04-29 16:13 | 41.32565 | -1.98742 | 35934 ft | 420 kts | 323° |
| 2026-04-29 16:14 | 41.37585 | -2.02641 | 35925 ft | 420 kts | 323° |
| 2026-04-29 16:14 | 41.42648 | -2.06579 | 35926 ft | 421 kts | 324° |
| 2026-04-29 16:15 | 41.47699 | -2.10515 | 35919 ft | 422 kts | 324° |
| 2026-04-29 16:15 | 41.52787 | -2.14488 | 35907 ft | 423 kts | 324° |
| 2026-04-29 16:16 | 41.57892 | -2.18478 | 35912 ft | 424 kts | 324° |
| 2026-04-29 16:16 | 41.62956 | -2.22446 | 35913 ft | 424 kts | 324° |
| 2026-04-29 16:17 | 41.68034 | -2.26436 | 35905 ft | 425 kts | 324° |
| 2026-04-29 16:17 | 41.73135 | -2.30450 | 35896 ft | 426 kts | 324° |
| 2026-04-29 16:18 | 41.78175 | -2.34415 | 35910 ft | 416 kts | 324° |
| 2026-04-29 16:18 | 41.83135 | -2.38333 | 35905 ft | 415 kts | 324° |
| 2026-04-29 16:19 | 41.88070 | -2.42235 | 35525 ft | 410 kts | 324° |
| 2026-04-29 16:19 | 41.90535 | -2.44187 | 34955 ft | 413 kts | 324° |
| 2026-04-29 16:19 | 41.92997 | -2.46142 | 34363 ft | 416 kts | 325° |
| 2026-04-29 16:19 | 41.95506 | -2.48137 | 33711 ft | 419 kts | 325° |
| 2026-04-29 16:20 | 41.98019 | -2.50136 | 33069 ft | 421 kts | 326° |
| 2026-04-29 16:20 | 42.00526 | -2.52129 | 32401 ft | 424 kts | 326° |
| 2026-04-29 16:20 | 42.03064 | -2.54149 | 31688 ft | 427 kts | 326° |
| 2026-04-29 16:20 | 42.05633 | -2.56194 | 30984 ft | 430 kts | 326° |
| 2026-04-29 16:21 | 42.08215 | -2.58251 | 30295 ft | 433 kts | 327° |
| 2026-04-29 16:21 | 42.10784 | -2.60298 | 29546 ft | 436 kts | 327° |
| 2026-04-29 16:21 | 42.13435 | -2.62400 | 28787 ft | 439 kts | 327° |
| 2026-04-29 16:21 | 42.16035 | -2.64462 | 28055 ft | 442 kts | 327° |
| 2026-04-29 16:22 | 42.18707 | -2.66596 | 27324 ft | 444 kts | 326° |
| 2026-04-29 16:22 | 42.21330 | -2.68704 | 26627 ft | 445 kts | 325° |
| 2026-04-29 16:22 | 42.24000 | -2.70855 | 25882 ft | 447 kts | 325° |
| 2026-04-29 16:22 | 42.26658 | -2.72998 | 25123 ft | 449 kts | 326° |
| 2026-04-29 16:23 | 42.29322 | -2.75143 | 24377 ft | 450 kts | 326° |
| 2026-04-29 16:23 | 42.32013 | -2.77306 | 23585 ft | 452 kts | 326° |
| 2026-04-29 16:23 | 42.34710 | -2.79478 | 22802 ft | 453 kts | 326° |
| 2026-04-29 16:23 | 42.37429 | -2.81669 | 21998 ft | 454 kts | 326° |
| 2026-04-29 16:24 | 42.40162 | -2.83756 | 21152 ft | 458 kts | 333° |
| 2026-04-29 16:24 | 42.43249 | -2.84892 | 20300 ft | 464 kts | 353° |
| 2026-04-29 16:24 | 42.46402 | -2.84657 | 19754 ft | 458 kts | 12° |
| 2026-04-29 16:24 | 42.49387 | -2.83136 | 19192 ft | 451 kts | 31° |
| 2026-04-29 16:25 | 42.51848 | -2.80626 | 18670 ft | 444 kts | 43° |
| 2026-04-29 16:25 | 42.54134 | -2.77807 | 18119 ft | 439 kts | 44° |
| 2026-04-29 16:25 | 42.56365 | -2.75010 | 17570 ft | 435 kts | 44° |
| 2026-04-29 16:25 | 42.58582 | -2.72253 | 17038 ft | 431 kts | 44° |
| 2026-04-29 16:26 | 42.60793 | -2.69531 | 16506 ft | 428 kts | 43° |
| 2026-04-29 16:26 | 42.62977 | -2.66862 | 15967 ft | 425 kts | 43° |
| 2026-04-29 16:26 | 42.65154 | -2.64214 | 15433 ft | 422 kts | 43° |
| 2026-04-29 16:26 | 42.67353 | -2.61543 | 14852 ft | 419 kts | 42° |
| 2026-04-29 16:27 | 42.69501 | -2.58932 | 14337 ft | 416 kts | 42° |
| 2026-04-29 16:27 | 42.71664 | -2.56305 | 13762 ft | 413 kts | 42° |
| 2026-04-29 16:27 | 42.73788 | -2.53723 | 13303 ft | 409 kts | 42° |
| 2026-04-29 16:27 | 42.75880 | -2.51178 | 12795 ft | 406 kts | 42° |
| 2026-04-29 16:28 | 42.77982 | -2.48620 | 12277 ft | 404 kts | 42° |
| 2026-04-29 16:28 | 42.80058 | -2.46089 | 11664 ft | 402 kts | 42° |
| 2026-04-29 16:28 | 42.82120 | -2.43573 | 11143 ft | 399 kts | 42° |
| 2026-04-29 16:28 | 42.84165 | -2.41074 | 10799 ft | 389 kts | 42° |
| 2026-04-29 16:29 | 42.86142 | -2.38656 | 10595 ft | 376 kts | 42° |
| 2026-04-29 16:29 | 42.88073 | -2.36292 | 10397 ft | 362 kts | 42° |
| 2026-04-29 16:29 | 42.89893 | -2.34062 | 10255 ft | 349 kts | 43° |
| 2026-04-29 16:29 | 42.91663 | -2.31880 | 10126 ft | 336 kts | 43° |
| 2026-04-29 16:30 | 42.93355 | -2.29794 | 10022 ft | 323 kts | 43° |
| 2026-04-29 16:30 | 42.95052 | -2.27890 | 9894 ft | 311 kts | 30° |
| 2026-04-29 16:30 | 42.97063 | -2.26980 | 9629 ft | 303 kts | 1° |
| 2026-04-29 16:30 | 42.99118 | -2.27372 | 9240 ft | 296 kts | 333° |
| 2026-04-29 16:31 | 43.00770 | -2.28940 | 8862 ft | 288 kts | 313° |
| 2026-04-29 16:31 | 43.02206 | -2.30804 | 8519 ft | 288 kts | 312° |
| 2026-04-29 16:31 | 43.03663 | -2.32699 | 8183 ft | 287 kts | 313° |
| 2026-04-29 16:31 | 43.05128 | -2.34577 | 7856 ft | 287 kts | 313° |
| 2026-04-29 16:32 | 43.06584 | -2.36425 | 7523 ft | 286 kts | 314° |
| 2026-04-29 16:32 | 43.07557 | -2.37652 | 7313 ft | 286 kts | 313° |
| 2026-04-29 16:32 | 43.09498 | -2.40094 | 6886 ft | 284 kts | 314° |
| 2026-04-29 16:32 | 43.10944 | -2.41905 | 6575 ft | 282 kts | 314° |
| 2026-04-29 16:33 | 43.13482 | -2.45885 | 6041 ft | 280 kts | 296° |
| 2026-04-29 16:33 | 43.14409 | -2.48267 | 6015 ft | 284 kts | 292° |
| 2026-04-29 16:33 | 43.15284 | -2.50688 | 6016 ft | 285 kts | 292° |
| 2026-04-29 16:34 | 43.16154 | -2.53094 | 6013 ft | 285 kts | 292° |
| 2026-04-29 16:34 | 43.17070 | -2.55516 | 5964 ft | 285 kts | 295° |
| 2026-04-29 16:34 | 43.18007 | -2.57912 | 5746 ft | 285 kts | 294° |
| 2026-04-29 16:34 | 43.18910 | -2.60294 | 5355 ft | 285 kts | 294° |
| 2026-04-29 16:35 | 43.19799 | -2.62716 | 4941 ft | 285 kts | 294° |
| 2026-04-29 16:35 | 43.20687 | -2.65174 | 4523 ft | 286 kts | 293° |
| 2026-04-29 16:35 | 43.21564 | -2.67618 | 4106 ft | 286 kts | 293° |
| 2026-04-29 16:35 | 43.22442 | -2.70055 | 3672 ft | 287 kts | 294° |
| 2026-04-29 16:36 | 43.23327 | -2.72494 | 3248 ft | 287 kts | 294° |
| 2026-04-29 16:36 | 43.24206 | -2.74908 | 2814 ft | 284 kts | 295° |
| 2026-04-29 16:36 | 43.25079 | -2.77299 | 2402 ft | 273 kts | 295° |
| 2026-04-29 16:36 | 43.25894 | -2.79532 | 2002 ft | 250 kts | 295° |
| 2026-04-29 16:37 | 43.26667 | -2.81632 | 1632 ft | 242 kts | 297° |
| 2026-04-29 16:37 | 43.27380 | -2.83570 | 1291 ft | 218 kts | 295° |
| 2026-04-29 16:37 | 43.28022 | -2.85327 | 1050 ft | 193 kts | 294° |
| 2026-04-29 16:37 | 43.28399 | -2.86369 | 904 ft | 176 kts | 294° |
| 2026-04-29 16:38 | 43.29098 | -2.88276 | 470 ft | 160 kts | 292° |
| 2026-04-29 16:38 | 43.29577 | -2.89583 | 223 ft | 147 kts | 291° |
| 2026-04-29 16:38 | 43.30001 | -2.90743 | 144 ft | 124 kts | 288° |
| 2026-04-29 16:38 | 43.30280 | -2.91537 | 138 ft | 51 kts | 293° |
| 2026-04-29 16:39 | 43.30383 | -2.91793 | 141 ft | 26 kts | 302° |
| 2026-04-29 16:39 | 43.30492 | -2.91957 | 143 ft | 22 kts | 317° |
| 2026-04-29 16:39 | 43.30587 | -2.92043 | 145 ft | 11 kts | 337° |
| 2026-04-29 16:39 | 43.30633 | -2.92017 | 152 ft | 2 kts | 65° |
| 2026-04-29 16:40 | 43.30618 | -2.91936 | 156 ft | 20 kts | 118° |
| 2026-04-29 16:40 | 43.30526 | -2.91688 | 159 ft | 33 kts | 117° |
| 2026-04-29 16:40 | 43.30424 | -2.91411 | 156 ft | 32 kts | 116° |
| 2026-04-29 16:40 | 43.30335 | -2.91171 | 151 ft | 13 kts | 117° |
| 2026-04-29 16:41 | 43.30304 | -2.91054 | 148 ft | 11 kts | 73° |
| 2026-04-29 16:41 | 43.30356 | -2.91006 | 152 ft | 7 kts | 26° |
| 2026-04-29 16:41 | 43.30395 | -2.90973 | 154 ft | 5 kts | 47° |
| 2026-04-29 16:41 | 43.30401 | -2.90922 | 154 ft | 6 kts | 89° |
| 2026-04-29 16:42 | 43.30405 | -2.90855 | 155 ft | 7 kts | 85° |
| 2026-04-29 16:42 | 43.30406 | -2.90798 | 157 ft | 2 kts | 88° |
| 2026-04-29 16:42 | 43.30406 | -2.90794 | 157 ft | 0 kts | 84° |
| 2026-04-29 16:42 | 43.30406 | -2.90795 | 157 ft | 0 kts | 97° |
| 2026-04-29 16:43 | 43.30407 | -2.90786 | 157 ft | 1 kts | 70° |
| 2026-04-29 16:43 | 43.30412 | -2.90779 | 158 ft | 1 kts | 39° |
| 2026-04-29 16:43 | 43.30447 | -2.90754 | 160 ft | 4 kts | 27° |
| 2026-04-29 16:43 | 43.30467 | -2.90740 | 160 ft | 1 kts | 28° |
| 2026-04-29 16:44 | 43.30467 | -2.90739 | 160 ft | 0 kts | 28° |